Mestre Horacio — CUQG6 — position and weather

sailwx.info

Track history (hours):
 
Tides and Currents Weather Stations Pressure Air Temp Water Temp Dewpoint Dewpoint Depression Visibility Wind Speed Wind Dir Waves Ship Positions

Mestre Horacio

Last reported at 2017-Sep-20 21:05 UTC. Time now 2017-Sep-21 03:35 UTC.
Position N 39°17' W 009°24'.

Type: Fishing. MMSI: 263402370.

Date/timePositionNaut miles runAvg speedWind from/ knotsBaromVisibWave heightAir tempDewpointWater temp
2017-Sep-20 21:05N 39°17' W 009°24'2 8.4
2017-Sep-20 20:49N 39°15' W 009°26'3 8.2
2017-Sep-20 20:30N 39°13' W 009°27'4 8.1
2017-Sep-20 20:00N 39°09' W 009°29'2 3.1
2017-Sep-20 19:30N 39°08' W 009°30'0 0.5
2017-Sep-20 19:00N 39°08' W 009°30'1 1.6
2017-Sep-20 18:29N 39°09' W 009°30'4 9.0
2017-Sep-20 18:00N 39°13' W 009°27'1 0.0
2017-Sep-19 20:51N 39°14' W 009°27'3 7.9
2017-Sep-19 20:30N 39°11' W 009°29'4 7.3
2017-Sep-19 20:00N 39°08' W 009°31'1 1.1
2017-Sep-19 19:30N 39°09' W 009°31'0 0.6
2017-Sep-19 19:00N 39°09' W 009°31'0 0.8
2017-Sep-19 18:30N 39°09' W 009°31'3 6.1
2017-Sep-19 18:00N 39°12' W 009°30'3 6.0
2017-Sep-19 17:30N 39°14' W 009°27'4 0.2
2017-Sep-18 19:34N 39°12' W 009°23'0 8.4
2017-Sep-18 19:30N 39°12' W 009°23'3 6.8
2017-Sep-18 19:00N 39°12' W 009°27'1 0.9
2017-Sep-18 17:39N 39°11' W 009°28'0 0.3
2017-Sep-18 17:30N 39°11' W 009°28'3 6.4
2017-Sep-18 17:00N 39°10' W 009°24'2 4.3
2017-Sep-18 16:27N 39°12' W 009°23'  
2017-Sep-14 19:50N 39°11' W 009°23'0 0.9
2017-Sep-14 19:30N 39°11' W 009°23'0 0.3
2017-Sep-14 19:00N 39°11' W 009°23'1 0.8
2017-Sep-14 18:19N 39°12' W 009°23'3 0.1
2017-Sep-13 20:36N 39°09' W 009°23'0 0.5
2017-Sep-13 20:30N 39°09' W 009°23'0 0.3
2017-Sep-13 19:54N 39°09' W 009°23'0 0.1
2017-Sep-13 19:13N 39°09' W 009°23'2 6.7
2017-Sep-13 18:51N 39°12' W 009°23'2 6.6
2017-Sep-13 18:31N 39°13' W 009°26'2 0.1
2017-Sep-12 20:27N 39°12' W 009°23'0 0.1
2017-Sep-12 20:01N 39°12' W 009°23'0 0.1
2017-Sep-12 19:13N 39°12' W 009°23'1 1.7
2017-Sep-12 18:46N 39°12' W 009°24'1 2.8
2017-Sep-12 18:24N 39°12' W 009°23'0 0.0
2017-Sep-12 17:31N 39°12' W 009°23'0 2.9
2017-Sep-12 17:27N 39°12' W 009°23'2 5.1
2017-Sep-12 17:00N 39°14' W 009°23'4 0.4
2017-Sep-12 07:06N 39°18' W 009°24'6 6.6
2017-Sep-12 06:08N 39°12' W 009°23'2 6.7
2017-Sep-12 05:48N 39°09' W 009°23'3 7.8
2017-Sep-12 05:27N 39°12' W 009°24'1 0.1
2017-Sep-11 18:12N 39°12' W 009°23'1 6.8
2017-Sep-11 18:00N 39°11' W 009°24'1 0.8
2017-Sep-11 16:04N 39°12' W 009°24'0 0.9
2017-Sep-11 16:00N 39°12' W 009°24'1 1.5
2017-Sep-11 15:19N 39°11' W 009°25'0 0.5
2017-Sep-11 15:00N 39°12' W 009°25'0 0.1
2017-Sep-11 14:21N 39°12' W 009°25'1 2.4
2017-Sep-11 14:00N 39°12' W 009°24'  
Track history (hours):
 
Tides and Currents Weather Stations Pressure Air Temp Water Temp Dewpoint Dewpoint Depression Visibility Wind Speed Wind Dir Waves Ship Positions

Mestre Horacio

Last reported at 2017-Sep-20 21:05 UTC. Time now 2017-Sep-21 03:35 UTC.
Position N 39°17' W 009°24'.

Type: Fishing. MMSI: 263402370.

Date/timePositionNaut miles runAvg speedWind from/ knotsBaromVisibWave heightAir tempDewpointWater temp
2017-Sep-20 21:05N 39°17' W 009°24'2 8.4
2017-Sep-20 20:49N 39°15' W 009°26'3 8.2
2017-Sep-20 20:30N 39°13' W 009°27'4 8.1
2017-Sep-20 20:00N 39°09' W 009°29'2 3.1
2017-Sep-20 19:30N 39°08' W 009°30'0 0.5
2017-Sep-20 19:00N 39°08' W 009°30'1 1.6
2017-Sep-20 18:29N 39°09' W 009°30'4 9.0
2017-Sep-20 18:00N 39°13' W 009°27'1 0.0
2017-Sep-19 20:51N 39°14' W 009°27'3 7.9
2017-Sep-19 20:30N 39°11' W 009°29'4 7.3
2017-Sep-19 20:00N 39°08' W 009°31'1 1.1
2017-Sep-19 19:30N 39°09' W 009°31'0 0.6
2017-Sep-19 19:00N 39°09' W 009°31'0 0.8
2017-Sep-19 18:30N 39°09' W 009°31'3 6.1
2017-Sep-19 18:00N 39°12' W 009°30'3 6.0
2017-Sep-19 17:30N 39°14' W 009°27'4 0.2
2017-Sep-18 19:34N 39°12' W 009°23'0 8.4
2017-Sep-18 19:30N 39°12' W 009°23'3 6.8
2017-Sep-18 19:00N 39°12' W 009°27'1 0.9
2017-Sep-18 17:39N 39°11' W 009°28'0 0.3
2017-Sep-18 17:30N 39°11' W 009°28'3 6.4
2017-Sep-18 17:00N 39°10' W 009°24'2 4.3
2017-Sep-18 16:27N 39°12' W 009°23'  
2017-Sep-14 19:50N 39°11' W 009°23'0 0.9
2017-Sep-14 19:30N 39°11' W 009°23'0 0.3
2017-Sep-14 19:00N 39°11' W 009°23'1 0.8
2017-Sep-14 18:19N 39°12' W 009°23'3 0.1
2017-Sep-13 20:36N 39°09' W 009°23'0 0.5
2017-Sep-13 20:30N 39°09' W 009°23'0 0.3
2017-Sep-13 19:54N 39°09' W 009°23'0 0.1
2017-Sep-13 19:13N 39°09' W 009°23'2 6.7
2017-Sep-13 18:51N 39°12' W 009°23'2 6.6
2017-Sep-13 18:31N 39°13' W 009°26'2 0.1
2017-Sep-12 20:27N 39°12' W 009°23'0 0.1
2017-Sep-12 20:01N 39°12' W 009°23'0 0.1
2017-Sep-12 19:13N 39°12' W 009°23'1 1.7
2017-Sep-12 18:46N 39°12' W 009°24'1 2.8
2017-Sep-12 18:24N 39°12' W 009°23'0 0.0
2017-Sep-12 17:31N 39°12' W 009°23'0 2.9
2017-Sep-12 17:27N 39°12' W 009°23'2 5.1
2017-Sep-12 17:00N 39°14' W 009°23'4 0.4
2017-Sep-12 07:06N 39°18' W 009°24'6 6.6
2017-Sep-12 06:08N 39°12' W 009°23'2 6.7
2017-Sep-12 05:48N 39°09' W 009°23'3 7.8
2017-Sep-12 05:27N 39°12' W 009°24'1 0.1
2017-Sep-11 18:12N 39°12' W 009°23'1 6.8
2017-Sep-11 18:00N 39°11' W 009°24'1 0.8
2017-Sep-11 16:04N 39°12' W 009°24'0 0.9
2017-Sep-11 16:00N 39°12' W 009°24'1 1.5
2017-Sep-11 15:19N 39°11' W 009°25'0 0.5
2017-Sep-11 15:00N 39°12' W 009°25'0 0.1
2017-Sep-11 14:21N 39°12' W 009°25'1 2.4
2017-Sep-11 14:00N 39°12' W 009°24'  

Dump ship's entire track history